Latest Coastal Weather Observations for Ulladulla

IDN60701

Issued at 3:41 am EST Tuesday 28 June 2022 (issued every 10 minutes, with the page automatically refreshed every 10 minutes)

About coastal observations | Map of coastal stations | Coastal observations for NSW | Marine services | Other Formats
Station Details ID: 069138 Name: ULLADULLA AWS Lat: -35.36 Lon: 150.48 Height: 35.7 m
Data from the previous 72 hours. | See also: Recent months at Ulladulla
Date/Time
EST
Wind Sea
Height
m
Swell Vis
km
Cloud Weather Temp
°C
Press
MSL
hPa
Rain since
9am
mm
Dir  Spd
kts
Gust
kts
Height
m
Period
s
Dir
28/03:30am SW 9 15 - - - - - - - 8.9 1030.0 0.0
28/03:00am SW 9 15 - - - - - - - 8.9 1030.1 0.0
28/02:30am SW 11 17 - - - - - - - 9.1 1030.3 0.0
28/02:00am SW 10 17 - - - - - - - 9.2 1030.5 0.0
28/01:30am SW 11 19 - - - - - - - 9.2 1030.6 0.0
28/01:00am SW 11 17 - - - - - - - 9.2 1030.6 0.0
28/12:30am SW 10 16 - - - - - - - 8.9 1030.8 0.0
28/12:00am SW 11 17 - - - - - - - 9.1 1030.9 0.0
 
Date/Time
EST
Wind Sea
Height
m
Swell Vis
km
Cloud Weather Temp
°C
Press
MSL
hPa
Rain since
9am
mm
Dir  Spd
kts
Gust
kts
Height
m
Period
s
Dir
27/11:30pm SW 11 17 - - - - - - - 9.3 1031.0 0.0
27/11:00pm SW 10 15 - - - - - - - 9.5 1031.0 0.0
27/10:30pm WSW 8 13 - - - - - - - 9.4 1031.0 0.0
27/10:00pm SW 10 15 - - - - - - - 10.1 1030.9 0.0
27/09:30pm SW 8 13 - - - - - - - 10.8 1030.9 0.0
27/09:00pm SW 12 19 - - - - - - - 11.4 1030.8 0.0
27/08:30pm SSW 13 26 - - - - - - - 12.4 1030.7 0.0
27/08:00pm SSW 13 20 - - - - - - - 12.7 1030.4 0.0
27/07:30pm SSW 11 23 - - - - - - - 12.2 1030.3 0.0
27/07:03pm SSW 15 25 - - - - - - - 13.0 1030.0 0.0
27/07:00pm SSW 16 25 - - - - - - - 13.1 1030.0 0.0
27/06:30pm SSW 17 25 - - - - - - - 13.1 1029.5 0.0
27/06:00pm SSW 17 25 - - - - - - - 13.0 1029.2 0.0
27/05:30pm SSW 15 21 - - - - - - - 12.9 1029.0 0.0
27/05:00pm SSW 15 23 - - - - - - - 13.1 1028.8 0.0
27/04:30pm S 18 24 - - - - - - - 13.1 1028.5 0.0
27/04:00pm S 17 24 - - - - - - - 13.3 1028.3 0.0
27/03:30pm S 18 22 - - - - - - - 13.5 1028.3 0.0
27/03:00pm SSW 17 25 - - - - - - - 13.6 1028.0 0.0
27/02:30pm SSW 15 23 - - - - - - - 13.5 1027.6 0.0
27/02:00pm SSW 17 24 - - - - - - - 13.4 1027.6 0.0
27/01:30pm SSW 16 24 - - - - - - - 13.4 1027.7 0.0
27/01:00pm SSW 16 25 - - - - - - - 13.2 1027.7 0.0
27/12:30pm SSW 16 23 - - - - - - - 13.1 1027.7 0.0
27/12:00pm SSW 15 25 - - - - - - - 13.0 1027.6 0.0
27/11:30am SSW 14 23 - - - - - - - 12.8 1027.7 0.0
27/11:00am SSW 10 15 - - - - - - - 12.8 1027.9 0.0
27/10:30am SW 10 15 - - - - - - - 12.4 1028.2 0.0
27/10:00am SSW 11 17 - - - - - - - 12.1 1028.1 0.0
27/09:30am SW 9 15 - - - - - - - 11.9 1027.7 0.0
27/09:00am SSW 11 17 - - - - - - - 12.1 1027.2 0.0
27/08:30am SW 8 13 - - - - - - - 10.9 1027.1 0.0
27/08:00am SW 6 9 - - - - - - - 10.1 1026.7 0.0
27/07:30am SW 9 13 - - - - - - - 9.7 1026.5 0.0
27/07:00am SW 7 11 - - - - - - - 9.7 1026.2 0.0
27/06:30am WSW 6 9 - - - - - - - 9.8 1026.1 0.0
27/06:00am SW 7 11 - - - - - - - 10.2 1025.6 0.0
27/05:30am SW 8 12 - - - - - - - 10.3 1025.2 0.0
27/05:00am WSW 7 12 - - - - - - - 10.2 1024.9 0.0
27/04:30am WSW 7 10 - - - - - - - 10.3 1024.7 0.0
27/04:00am WSW 7 11 - - - - - - - 10.3 1024.4 0.0
27/03:30am WSW 8 11 - - - - - - - 10.5 1024.4 0.0
27/03:00am SW 8 11 - - - - - - - 10.6 1024.2 0.0
27/02:30am WSW 7 11 - - - - - - - 10.6 1024.1 0.0
27/02:00am WSW 8 12 - - - - - - - 11.0 1024.1 0.0
27/01:30am WSW 7 11 - - - - - - - 11.1 1024.2 0.0
27/01:00am WSW 7 11 - - - - - - - 11.7 1024.1 0.0
27/12:30am WSW 8 11 - - - - - - - 11.7 1024.2 0.0
27/12:00am W 6 10 - - - - - - - 11.9 1024.2 0.0
 
Date/Time
EST
Wind Sea
Height
m
Swell Vis
km
Cloud Weather Temp
°C
Press
MSL
hPa
Rain since
9am
mm
Dir  Spd
kts
Gust
kts
Height
m
Period
s
Dir
26/11:30pm WNW 4 8 - - - - - - - 12.0 1024.1 0.0
26/11:00pm WNW 4 8 - - - - - - - 11.9 1024.0 0.0
26/10:30pm WNW 4 7 - - - - - - - 11.9 1023.9 0.0
26/10:00pm W 5 7 - - - - - - - 12.1 1023.9 0.0
26/09:30pm W 4 6 - - - - - - - 12.4 1023.9 0.0
26/09:00pm WNW 4 6 - - - - - - - 12.7 1023.8 0.0
26/08:30pm NW 4 7 - - - - - - - 13.0 1023.5 0.0
26/08:00pm WNW 4 7 - - - - - - - 13.6 1023.4 0.0
26/07:30pm NW 3 6 - - - - - - - 13.0 1023.2 0.0
26/07:00pm W 3 5 - - - - - - - 12.4 1023.2 0.0
26/06:30pm NW 3 4 - - - - - - - 12.6 1022.9 0.0
26/06:00pm NW 2 3 - - - - - - - 12.9 1022.6 0.0
26/05:30pm NW 2 3 - - - - - - - 13.4 1022.4 0.0
26/05:00pm NE 1 3 - - - - - - - 14.6 1022.3 0.0
26/04:30pm NE 1 3 - - - - - - - 15.1 1022.3 0.0
26/04:00pm E 2 4 - - - - - - - 15.4 1022.0 0.0
26/03:30pm ESE 2 3 - - - - - - - 15.7 1021.8 0.0
26/03:00pm ESE 1 3 - - - - - - - 16.2 1021.8 0.0
26/02:30pm SE 3 8 - - - - - - - 16.3 1021.6 0.0
26/02:00pm SSE 3 5 - - - - - - - 16.7 1021.7 0.0
26/01:30pm SSE 3 5 - - - - - - - 16.7 1021.8 0.0
26/01:00pm SSE 5 6 - - - - - - - 16.7 1021.9 0.0
26/12:30pm SSE 3 5 - - - - - - - 16.9 1022.3 0.0
26/12:00pm S 5 7 - - - - - - - 16.7 1022.5 0.0
26/11:30am SSW 4 7 - - - - - - - 16.7 1022.8 0.0
26/11:00am WSW 5 9 - - - - - - - 16.3 1023.1 0.0
26/10:30am SW 3 5 - - - - - - - 15.7 1023.2 0.0
26/10:00am CALM 0 3 - - - - - - - 15.5 1023.6 0.0
26/09:30am WNW 4 6 - - - - - - - 15.5 1023.3 0.0
26/09:00am N 3 5 - - - - - - - 14.4 1023.2 0.0
26/08:30am NW 3 4 - - - - - - - 13.6 1023.0 0.0
26/08:00am WNW 2 3 - - - - - - - 12.3 1023.0 0.0
26/07:30am NW 3 4 - - - - - - - 10.9 1022.8 0.0
26/07:00am WNW 2 3 - - - - - - - 10.5 1022.3 0.0
26/06:30am W 3 5 - - - - - - - 10.0 1022.2 0.0
26/06:00am WNW 3 4 - - - - - - - 9.4 1022.2 0.0
26/05:30am WNW 2 3 - - - - - - - 9.3 1021.7 0.0
26/05:00am WNW 3 4 - - - - - - - 9.5 1021.6 0.0
26/04:30am W 4 5 - - - - - - - 9.0 1021.6 0.0
26/04:00am W 5 5 - - - - - - - 9.5 1021.5 0.0
26/03:30am W 5 7 - - - - - - - 10.8 1021.2 0.0
26/03:00am W 5 7 - - - - - - - 11.1 1021.3 0.0
26/02:30am WNW 5 8 - - - - - - - 11.6 1021.4 0.0
26/02:00am WNW 4 7 - - - - - - - 11.0 1021.4 0.0
26/01:30am W 1 2 - - - - - - - 10.8 1021.3 0.0
26/01:00am WNW 4 7 - - - - - - - 11.9 1021.3 0.0
26/12:30am WNW 5 8 - - - - - - - 12.2 1021.4 0.0
26/12:00am W 7 13 - - - - - - - 12.7 1021.5 0.0
 
Date/Time
EST
Wind Sea
Height
m
Swell Vis
km
Cloud Weather Temp
°C
Press
MSL
hPa
Rain since
9am
mm
Dir  Spd
kts
Gust
kts
Height
m
Period
s
Dir
25/11:30pm W 6 12 - - - - - - - 12.7 1021.6 0.0
25/11:00pm WNW 4 7 - - - - - - - 12.6 1021.6 0.0
25/10:30pm WNW 6 11 - - - - - - - 13.0 1021.6 0.0
25/10:00pm WNW 6 10 - - - - - - - 13.2 1021.4 0.0
25/09:30pm WNW 7 14 - - - - - - - 13.6 1021.5 0.0
25/09:00pm WNW 7 13 - - - - - - - 13.9 1021.5 0.0
25/08:30pm WNW 7 15 - - - - - - - 13.9 1021.5 0.0
25/08:00pm WNW 8 14 - - - - - - - 14.4 1021.4 0.0
25/07:30pm WNW 6 11 - - - - - - - 14.3 1021.2 0.0
25/07:00pm WNW 6 9 - - - - - - - 14.2 1021.0 0.0
25/06:30pm WNW 5 9 - - - - - - - 14.1 1020.8 0.0
25/06:00pm NW 4 7 - - - - - - - 13.9 1020.4 0.0
25/05:30pm NNW 3 9 - - - - - - - 14.0 1020.1 0.0
25/05:00pm NNW 2 2 - - - - - - - 14.3 1019.8 0.0
25/04:30pm NW 3 6 - - - - - - - 16.4 1019.6 0.0
25/04:00pm WNW 3 4 - - - - - - - 17.8 1019.4 0.0
25/03:30pm WNW 4 7 - - - - - - - 18.5 1019.2 0.0
25/03:00pm WNW 5 9 - - - - - - - 18.6 1019.1 0.0
25/02:30pm W 4 9 - - - - - - - 18.9 1019.0 0.0
25/02:00pm W 5 9 - - - - - - - 19.0 1018.9 0.0
25/01:30pm SW 5 9 - - - - - - - 18.1 1018.9 0.0
25/01:00pm SW 4 9 - - - - - - - 18.1 1019.2 0.0
25/12:30pm W 6 11 - - - - - - - 17.8 1019.3 0.0
25/12:00pm W 6 11 - - - - - - - 18.0 1019.6 0.0
25/11:30am WNW 6 13 - - - - - - - 17.7 1019.8 0.0
25/11:00am WNW 5 13 - - - - - - - 17.5 1020.0 0.0
25/10:30am W 5 9 - - - - - - - 16.9 1020.4 0.0
25/10:00am WNW 4 7 - - - - - - - 16.5 1020.4 0.0
25/09:30am WNW 5 9 - - - - - - - 15.6 1020.4 0.0
25/09:00am WNW 2 4 - - - - - - - 14.8 1020.0 0.0
25/08:30am W 1 3 - - - - - - - 13.1 1019.8 0.0
25/08:00am ENE 2 2 - - - - - - - 11.9 1019.7 0.0
25/07:30am ENE 1 2 - - - - - - - 10.5 1019.4 0.0
25/07:00am NW 4 5 - - - - - - - 11.2 1019.2 0.0
25/06:30am NNW 1 6 - - - - - - - 11.4 1019.1 0.0
25/06:00am NNW 3 4 - - - - - - - 11.3 1018.6 0.0
25/05:30am NNW 1 2 - - - - - - - 11.5 1018.2 0.0
25/05:00am W 3 7 - - - - - - - 11.9 1018.0 0.0
25/04:30am W 6 9 - - - - - - - 12.1 1017.7 0.0
25/04:00am W 4 7 - - - - - - - 11.4 1017.7 0.0

Other formats

Comma delimited format used in spreadsheet applications
http://www.bom.gov.au/fwo/IDN60701/IDN60701.94938.axf

JavaScript Object Notation format (JSON) in row-major order
http://www.bom.gov.au/fwo/IDN60701/IDN60701.94938.json

Data quality

Most of these data are generated automatically and are frequently updated. Quality checks on data are not normally performed. It is possible for incorrect values to appear. Refer to information at About Latest Weather Observations and please check the disclaimer before using these data.